Indian Creek Village, Florida
Current Conditions -  °F | °C
As of 12:53 PM on Saturday 22 Nov 2014 (Local Time) from KOPF Reporting Station
Overcast Overcast  
Wind Chill: 80°   Ceiling: 4200
Heat Index: 83°   Visibility: 10mi
Dew Point: 69°   Wind: 20mph
Humidity: 69%   Direction: 90°E
Pressure: 30.14"   Gusts: 26mph
Location:  25.882°N, 80.1292°W
Report Text: KOPF 221753Z 09017G23KT 10SM FEW029 OVC042 27/21 A3014 RMK AO2 SLP205 60000 T02670206 10267 20244 58018
Loading
Personal Weather Stations






























Interactive Weather Map New forecast layout! Learn more

10-Day Weather Forecast

Advertisements
Track Severe Weather on mobile